sensor_id;sensor_type;location;lat;lon;timestamp;pressure;altitude;pressure_sealevel;temperature;humidity
46174;BME280;31897;52.420;13.498;2023-08-21T00:01:55;101800;;;20.03371;38.43345
46174;BME280;31897;52.420;13.498;2023-08-21T00:04:55;101800;;;20.01756;38.52367
46174;BME280;31897;52.420;13.498;2023-08-21T00:07:56;101800;;;19.99139;38.57796
46174;BME280;31897;52.420;13.498;2023-08-21T00:10:57;101800;;;19.91967;38.69868
46174;BME280;31897;52.420;13.498;2023-08-21T00:13:58;101800;;;19.86087;38.81325
46174;BME280;31897;52.420;13.498;2023-08-21T00:16:58;101800;;;19.76265;39.00011
46174;BME280;31897;52.420;13.498;2023-08-21T00:19:59;101800;;;19.75458;39.09618
46174;BME280;31897;52.420;13.498;2023-08-21T00:23:00;101800;;;19.72744;39.1564
46174;BME280;31897;52.420;13.498;2023-08-21T00:26:01;101800;;;19.71516;39.24648
46174;BME280;31897;52.420;13.498;2023-08-21T00:29:02;101800;;;19.65313;39.34893
46174;BME280;31897;52.420;13.498;2023-08-21T00:32:03;101800;;;19.62244;39.42713
46174;BME280;31897;52.420;13.498;2023-08-21T00:35:04;101800;;;19.52584;39.59572
46174;BME280;31897;52.420;13.498;2023-08-21T00:38:04;101800;;;19.55847;39.5895
46174;BME280;31897;52.420;13.498;2023-08-21T00:41:05;101800;;;19.54587;39.56561
46174;BME280;31897;52.420;13.498;2023-08-21T00:44:06;101800;;;19.50129;39.67384
46174;BME280;31897;52.420;13.498;2023-08-21T00:47:07;101800;;;19.45573;39.75207
46174;BME280;31897;52.420;13.498;2023-08-21T00:50:08;101800;;;19.43667;39.78217
46174;BME280;31897;52.420;13.498;2023-08-21T00:53:09;101800;;;19.44443;39.79411
46174;BME280;31897;52.420;13.498;2023-08-21T00:56:10;101800;;;19.44055;39.8361
46174;BME280;31897;52.420;13.498;2023-08-21T00:59:11;101800;;;19.44443;39.81809
46174;BME280;31897;52.420;13.498;2023-08-21T01:02:12;101800;;;19.42181;39.83022
46174;BME280;31897;52.420;13.498;2023-08-21T01:05:13;101800;;;19.32134;39.8788
46174;BME280;31897;52.420;13.498;2023-08-21T01:08:15;101800;;;19.27643;40.05284
46174;BME280;31897;52.420;13.498;2023-08-21T01:11:19;101800;;;19.27061;40.04089
46174;BME280;31897;52.420;13.498;2023-08-21T01:14:24;101800;;;19.27029;40.06486
46174;BME280;31897;52.420;13.498;2023-08-21T01:17:28;101800;;;19.26577;40.07687
46174;BME280;31897;52.420;13.498;2023-08-21T01:20:29;101800;;;19.27094;40.07684
46174;BME280;31897;52.420;13.498;2023-08-21T01:23:31;101800;;;19.22021;40.15502
46174;BME280;31897;52.420;13.498;2023-08-21T01:26:32;101800;;;19.17595;40.16724
46174;BME280;31897;52.420;13.498;2023-08-21T01:29:32;101800;;;19.16691;40.27511
46174;BME280;31897;52.420;13.498;2023-08-21T01:32:35;101800;;;19.15948;40.3051
46174;BME280;31897;52.420;13.498;2023-08-21T01:35:38;101800;;;19.17531;40.33497
46174;BME280;31897;52.420;13.498;2023-08-21T01:38:39;101800;;;19.18145;40.37687
46174;BME280;31897;52.420;13.498;2023-08-21T01:41:41;101800;;;19.18758;40.35288
46174;BME280;31897;52.420;13.498;2023-08-21T01:44:42;101800;;;19.20245;40.38276
46174;BME280;31897;52.420;13.498;2023-08-21T01:47:43;101800;;;19.23734;40.38857
46174;BME280;31897;52.420;13.498;2023-08-21T01:50:43;101800;;;19.30906;40.31631
46174;BME280;31897;52.420;13.498;2023-08-21T01:53:44;101800;;;19.34137;40.29817
46174;BME280;31897;52.420;13.498;2023-08-21T01:56:45;101800;;;19.34072;40.37008
46174;BME280;31897;52.420;13.498;2023-08-21T01:59:46;101800;;;19.33814;40.33414
46174;BME280;31897;52.420;13.498;2023-08-21T02:02:46;101800;;;19.3769;40.33993
46174;BME280;31897;52.420;13.498;2023-08-21T02:05:47;101800;;;19.43183;40.26772
46174;BME280;31897;52.420;13.498;2023-08-21T02:08:48;101800;;;19.49676;40.20143
46174;BME280;31897;52.420;13.498;2023-08-21T02:11:49;101800;;;19.55072;40.14118
46174;BME280;31897;52.420;13.498;2023-08-21T02:14:50;101800;;;19.60984;40.09887
46174;BME280;31897;52.420;13.498;2023-08-21T02:17:50;101800;;;19.57043;40.05713
46174;BME280;31897;52.420;13.498;2023-08-21T02:20:56;101800;;;19.58012;40.08106
46174;BME280;31897;52.420;13.498;2023-08-21T02:23:57;101800;;;19.60499;40.08691
46174;BME280;31897;52.420;13.498;2023-08-21T02:26:58;101800;;;19.64312;40.0567
46174;BME280;31897;52.420;13.498;2023-08-21T02:29:58;101800;;;19.69449;39.93645
46174;BME280;31897;52.420;13.498;2023-08-21T02:32:59;101800;;;19.68609;39.91851
46174;BME280;31897;52.420;13.498;2023-08-21T02:36:00;101800;;;19.62761;39.93686
46174;BME280;31897;52.420;13.498;2023-08-21T02:39:01;101800;;;19.63246;39.88885
46174;BME280;31897;52.420;13.498;2023-08-21T02:42:02;101800;;;19.61921;39.93691
46174;BME280;31897;52.420;13.498;2023-08-21T02:45:03;101800;;;19.7129;39.86436
46174;BME280;31897;52.420;13.498;2023-08-21T02:48:04;101800;;;19.69642;39.81048
46174;BME280;31897;52.420;13.498;2023-08-21T02:51:05;101800;;;19.7549;39.75011
46174;BME280;31897;52.420;13.498;2023-08-21T02:54:06;101800;;;19.82533;39.62965
46174;BME280;31897;52.420;13.498;2023-08-21T02:57:06;101800;;;19.8263;39.58764
46174;BME280;31897;52.420;13.498;2023-08-21T03:00:07;101800;;;19.77752;39.62998
46174;BME280;31897;52.420;13.498;2023-08-21T03:03:08;101800;;;19.76168;39.66608
46174;BME280;31897;52.420;13.498;2023-08-21T03:06:09;101800;;;19.71387;39.6904
46174;BME280;31897;52.420;13.498;2023-08-21T03:09:10;101800;;;19.75522;39.60614
46174;BME280;31897;52.420;13.498;2023-08-21T03:12:10;101800;;;19.82371;39.52766
46174;BME280;31897;52.420;13.498;2023-08-21T03:15:11;101800;;;19.80401;39.5518
46174;BME280;31897;52.420;13.498;2023-08-21T03:18:12;101800;;;19.7717;39.57603
46174;BME280;31897;52.420;13.498;2023-08-21T03:21:12;101800;;;19.77299;39.58202
46174;BME280;31897;52.420;13.498;2023-08-21T03:24:13;101800;;;19.79044;39.5699
46174;BME280;31897;52.420;13.498;2023-08-21T03:27:14;101800;;;19.79302;39.56388
46174;BME280;31897;52.420;13.498;2023-08-21T03:30:15;101800;;;19.81208;39.50374
46174;BME280;31897;52.420;13.498;2023-08-21T03:33:16;101800;;;19.80918;39.43776
46174;BME280;31897;52.420;13.498;2023-08-21T03:36:17;101800;;;19.7885;39.46191
46174;BME280;31897;52.420;13.498;2023-08-21T03:39:18;101800;;;19.78171;39.44396
46174;BME280;31897;52.420;13.498;2023-08-21T03:42:18;101800;;;19.79916;39.38384
46174;BME280;31897;52.420;13.498;2023-08-21T03:45:19;101800;;;19.82307;39.41366
46174;BME280;31897;52.420;13.498;2023-08-21T03:48:20;101800;;;19.80821;39.38377
46174;BME280;31897;52.420;13.498;2023-08-21T03:51:21;101800;;;19.77558;39.43801
46174;BME280;31897;52.420;13.498;2023-08-21T03:54:21;101800;;;19.71968;39.64837
46174;BME280;31897;52.420;13.498;2023-08-21T03:57:22;101800;;;19.72098;39.77433
46174;BME280;31897;52.420;13.498;2023-08-21T04:00:23;101800;;;19.75005;39.67816
46174;BME280;31897;52.420;13.498;2023-08-21T04:03:24;101800;;;19.76072;39.6001
46174;BME280;31897;52.420;13.498;2023-08-21T04:06:24;101800;;;19.83955;39.46154
46174;BME280;31897;52.420;13.498;2023-08-21T04:09:25;101800;;;19.86055;39.37138
46174;BME280;31897;52.420;13.498;2023-08-21T04:12:26;101800;;;19.85828;39.31139
46174;BME280;31897;52.420;13.498;2023-08-21T04:15:27;101800;;;19.84762;39.34747
46174;BME280;31897;52.420;13.498;2023-08-21T04:18:27;101800;;;19.84407;39.3715
46174;BME280;31897;52.420;13.498;2023-08-21T04:21:28;101800;;;19.80724;39.42578
46174;BME280;31897;52.420;13.498;2023-08-21T04:24:29;101800;;;19.78333;39.44395
46174;BME280;31897;52.420;13.498;2023-08-21T04:27:30;101800;;;19.80175;39.46182
46174;BME280;31897;52.420;13.498;2023-08-21T04:30:30;101800;;;19.80821;39.50977
46174;BME280;31897;52.420;13.498;2023-08-21T04:33:32;101800;;;19.67704;39.5287
46174;BME280;31897;52.420;13.498;2023-08-21T04:36:33;101800;;;19.5126;39.72772
46174;BME280;31897;52.420;13.498;2023-08-21T04:39:33;101800;;;19.54103;39.82947
46174;BME280;31897;52.420;13.498;2023-08-21T04:42:34;101800;;;19.58787;39.66726
46174;BME280;31897;52.420;13.498;2023-08-21T04:45:35;101800;;;19.4244;39.78824
46174;BME280;31897;52.420;13.498;2023-08-21T04:48:36;101800;;;19.36721;40.03434
46174;BME280;31897;52.420;13.498;2023-08-21T04:51:37;101800;;;19.52972;39.91348
46174;BME280;31897;52.420;13.498;2023-08-21T04:54:37;101800;;;19.66767;39.74469
46174;BME280;31897;52.420;13.498;2023-08-21T04:57:38;101800;;;19.56526;39.77535
46174;BME280;31897;52.420;13.498;2023-08-21T05:00:39;101800;;;19.46381;39.82396
46174;BME280;31897;52.420;13.498;2023-08-21T05:03:41;101800;;;19.19986;40.14315
46174;BME280;31897;52.420;13.498;2023-08-21T05:06:42;101800;;;19.14559;40.44294
46174;BME280;31897;52.420;13.498;2023-08-21T05:09:43;101800;;;19.28871;40.36435
46174;BME280;31897;52.420;13.498;2023-08-21T05:12:44;101800;;;19.34654;40.29215
46174;BME280;31897;52.420;13.498;2023-08-21T05:15:49;101800;;;19.38466;40.25599
46174;BME280;31897;52.420;13.498;2023-08-21T05:18:51;101800;;;19.48093;40.18953
46174;BME280;31897;52.420;13.498;2023-08-21T05:21:51;101800;;;19.62373;40.02084
46174;BME280;31897;52.420;13.498;2023-08-21T05:24:52;101800;;;19.65765;39.97865
46174;BME280;31897;52.420;13.498;2023-08-21T05:27:53;101800;;;19.72776;39.87026
46174;BME280;31897;52.420;13.498;2023-08-21T05:30:54;101800;;;19.81531;39.76171
46174;BME280;31897;52.420;13.498;2023-08-21T05:33:55;101800;;;19.89899;39.60514
46174;BME280;31897;52.420;13.498;2023-08-21T05:36:55;101800;;;19.99979;39.43036
46174;BME280;31897;52.420;13.498;2023-08-21T05:39:56;101800;;;20.05956;39.36988
46174;BME280;31897;52.420;13.498;2023-08-21T05:42:57;101800;;;20.13096;39.17118
46174;BME280;31897;52.420;13.498;2023-08-21T05:45:58;101800;;;20.17134;39.12882
46174;BME280;31897;52.420;13.498;2023-08-21T05:48:59;101800;;;20.22562;39.00825
46174;BME280;31897;52.420;13.498;2023-08-21T05:52:00;101800;;;20.07991;39.15959
46174;BME280;31897;52.420;13.498;2023-08-21T05:55:01;101800;;;20.0602;39.13573
46174;BME280;31897;52.420;13.498;2023-08-21T05:58:02;101800;;;20.14679;39.06897
46174;BME280;31897;52.420;13.498;2023-08-21T06:01:02;101800;;;20.33805;38.779
46174;BME280;31897;52.420;13.498;2023-08-21T06:04:03;101800;;;20.45953;38.66371
46174;BME280;31897;52.420;13.498;2023-08-21T06:07:04;101800;;;20.35;38.82095
46174;BME280;31897;52.420;13.498;2023-08-21T06:10:06;101800;;;20.40331;38.76639
46174;BME280;31897;52.420;13.498;2023-08-21T06:13:06;101800;;;20.52899;38.5729
46174;BME280;31897;52.420;13.498;2023-08-21T06:16:07;101800;;;20.48602;38.57932
46174;BME280;31897;52.420;13.498;2023-08-21T06:19:08;101800;;;20.5571;38.38627
46174;BME280;31897;52.420;13.498;2023-08-21T06:22:09;101800;;;20.37876;38.59836
46174;BME280;31897;52.420;13.498;2023-08-21T06:25:10;101800;;;20.37746;38.64044
46174;BME280;31897;52.420;13.498;2023-08-21T06:28:10;101800;;;20.50702;38.44688
46174;BME280;31897;52.420;13.498;2023-08-21T06:31:11;101800;;;20.75126;38.05353
46174;BME280;31897;52.420;13.498;2023-08-21T06:34:12;101800;;;20.83817;37.9804
46174;BME280;31897;52.420;13.498;2023-08-21T06:37:13;101800;;;20.90408;37.81119
46174;BME280;31897;52.420;13.498;2023-08-21T06:40:14;101800;;;21.15414;37.4832
46174;BME280;31897;52.420;13.498;2023-08-21T06:43:14;101800;;;21.50016;36.96673
46174;BME280;31897;52.420;13.498;2023-08-21T06:46:15;101800;;;21.66267;36.51234
46174;BME280;31897;52.420;13.498;2023-08-21T06:49:16;101800;;;21.5399;36.59851
46174;BME280;31897;52.420;13.498;2023-08-21T06:52:17;101800;;;21.49273;36.46055
46174;BME280;31897;52.420;13.498;2023-08-21T06:55:18;101800;;;21.47496;36.53916
46174;BME280;31897;52.420;13.498;2023-08-21T06:58:18;101800;;;21.54539;36.41759
46174;BME280;31897;52.420;13.498;2023-08-21T07:01:19;101800;;;21.69142;36.13201
46174;BME280;31897;52.420;13.498;2023-08-21T07:04:21;101800;;;21.72858;36.08319
46174;BME280;31897;52.420;13.498;2023-08-21T07:07:21;101800;;;21.61841;36.03062
46174;BME280;31897;52.420;13.498;2023-08-21T07:10:22;101800;;;21.58319;36.08543
46174;BME280;31897;52.420;13.498;2023-08-21T07:13:23;101800;;;21.59967;36.16959
46174;BME280;31897;52.420;13.498;2023-08-21T07:16:24;101800;;;23.30167;33.67293
46174;BME280;31897;52.420;13.498;2023-08-21T07:19:25;101800;;;22.75113;34.7612
46174;BME280;31897;52.420;13.498;2023-08-21T07:22:25;101800;;;22.38637;35.2695
46174;BME280;31897;52.420;13.498;2023-08-21T07:25:26;101800;;;22.23549;35.52578
46174;BME280;31897;52.420;13.498;2023-08-21T07:28:27;101800;;;22.33306;35.59058
46174;BME280;31897;52.420;13.498;2023-08-21T07:31:28;101800;;;22.31885;35.6935
46174;BME280;31897;52.420;13.498;2023-08-21T07:34:28;101800;;;22.53531;35.46027
46174;BME280;31897;52.420;13.498;2023-08-21T07:37:29;101800;;;22.61221;35.10837
46174;BME280;31897;52.420;13.498;2023-08-21T07:40:30;101800;;;22.78183;34.57919
46174;BME280;31897;52.420;13.498;2023-08-21T07:43:31;101900;;;22.84935;34.22704
46174;BME280;31897;52.420;13.498;2023-08-21T07:46:32;101900;;;23.04643;33.636
46174;BME280;31897;52.420;13.498;2023-08-21T07:49:32;101800;;;22.95597;33.6137
46174;BME280;31897;52.420;13.498;2023-08-21T07:52:33;101900;;;23.06679;33.34499
46174;BME280;31897;52.420;13.498;2023-08-21T07:55:34;101900;;;23.10911;33.19269
46174;BME280;31897;52.420;13.498;2023-08-21T07:58:35;101900;;;23.22187;32.96002
46174;BME280;31897;52.420;13.498;2023-08-21T08:01:36;101900;;;23.35659;32.70247
46174;BME280;31897;52.420;13.498;2023-08-21T08:04:37;101900;;;23.51523;32.54115
46174;BME280;31897;52.420;13.498;2023-08-21T08:07:38;101900;;;23.4658;32.56657
46174;BME280;31897;52.420;13.498;2023-08-21T08:10:39;101900;;;23.54237;32.34046
46174;BME280;31897;52.420;13.498;2023-08-21T08:13:40;101900;;;23.54851;32.37668
46174;BME280;31897;52.420;13.498;2023-08-21T08:16:41;101900;;;23.55045;32.18265
46174;BME280;31897;52.420;13.498;2023-08-21T08:19:42;101900;;;23.74591;31.81389
46174;BME280;31897;52.420;13.498;2023-08-21T08:22:43;101900;;;23.6926;31.44527
46174;BME280;31897;52.420;13.498;2023-08-21T08:25:44;101900;;;23.7401;31.07396
46174;BME280;31897;52.420;13.498;2023-08-21T08:28:45;101900;;;23.75981;30.88534
46174;BME280;31897;52.420;13.498;2023-08-21T08:31:45;101900;;;23.80698;30.58669
46174;BME280;31897;52.420;13.498;2023-08-21T08:34:46;101900;;;23.87224;30.32384
46174;BME280;31897;52.420;13.498;2023-08-21T08:37:47;101900;;;23.82539;30.08241
46174;BME280;31897;52.420;13.498;2023-08-21T08:40:48;101900;;;23.78501;29.97435
46174;BME280;31897;52.420;13.498;2023-08-21T08:43:51;101900;;;23.78533;29.72549
46174;BME280;31897;52.420;13.498;2023-08-21T08:46:55;101900;;;23.74656;29.41104
46174;BME280;31897;52.420;13.498;2023-08-21T08:49:56;101900;;;23.91101;29.02947
46174;BME280;31897;52.420;13.498;2023-08-21T08:52:57;101900;;;24.00245;28.63781
46174;BME280;31897;52.420;13.498;2023-08-21T08:55:58;101900;;;24.04639;28.36298
46174;BME280;31897;52.420;13.498;2023-08-21T08:58:59;101900;;;24.08936;28.01518
46174;BME280;31897;52.420;13.498;2023-08-21T09:01:59;101900;;;24.09647;27.73539
46174;BME280;31897;52.420;13.498;2023-08-21T09:05:00;101900;;;24.32683;27.22875
46174;BME280;31897;52.420;13.498;2023-08-21T09:08:02;101900;;;24.45768;26.81646
46174;BME280;31897;52.420;13.498;2023-08-21T09:11:03;101900;;;24.63603;26.28643
46174;BME280;31897;52.420;13.498;2023-08-21T09:14:04;101900;;;24.55525;26.09474
46174;BME280;31897;52.420;13.498;2023-08-21T09:17:05;101900;;;24.74911;25.70974
46174;BME280;31897;52.420;13.498;2023-08-21T09:20:07;101900;;;25.02115;25.49185
46174;BME280;31897;52.420;13.498;2023-08-21T09:23:08;101900;;;25.29772;25.29788
46174;BME280;31897;52.420;13.498;2023-08-21T09:26:18;101900;;;25.39303;25.23304
46174;BME280;31897;52.420;13.498;2023-08-21T09:29:18;101900;;;25.49868;25.16165
46174;BME280;31897;52.420;13.498;2023-08-21T09:32:19;101900;;;25.69189;24.84859
46174;BME280;31897;52.420;13.498;2023-08-21T09:35:20;101800;;;25.4654;24.71156
46174;BME280;31897;52.420;13.498;2023-08-21T09:38:21;101800;;;25.46799;24.51621
46174;BME280;31897;52.420;13.498;2023-08-21T09:41:23;101800;;;25.33293;24.4975
46174;BME280;31897;52.420;13.498;2023-08-21T09:44:24;101800;;;25.30967;24.62047
46174;BME280;31897;52.420;13.498;2023-08-21T09:47:25;101800;;;25.27672;24.52427
46174;BME280;31897;52.420;13.498;2023-08-21T09:50:26;101800;;;25.32841;24.3879
46174;BME280;31897;52.420;13.498;2023-08-21T09:53:29;101800;;;25.55135;23.95732
46174;BME280;31897;52.420;13.498;2023-08-21T09:56:30;101800;;;25.56718;23.65754
46174;BME280;31897;52.420;13.498;2023-08-21T09:59:32;101800;;;25.636;23.61177
46174;BME280;31897;52.420;13.498;2023-08-21T10:02:33;101800;;;25.71031;23.42529
46174;BME280;31897;52.420;13.498;2023-08-21T10:05:36;101800;;;25.81273;22.82209
46174;BME280;31897;52.420;13.498;2023-08-21T10:08:37;101800;;;25.67574;22.80396
46174;BME280;31897;52.420;13.498;2023-08-21T10:11:38;101800;;;25.75069;22.47065
46174;BME280;31897;52.420;13.498;2023-08-21T10:14:39;101800;;;25.83115;22.23471
46174;BME280;31897;52.420;13.498;2023-08-21T10:17:41;101800;;;25.72388;21.93432
46174;BME280;31897;52.420;13.498;2023-08-21T10:20:43;101800;;;25.64504;22.03583
46174;BME280;31897;52.420;13.498;2023-08-21T10:23:46;101800;;;25.94681;21.9542
46174;BME280;31897;52.420;13.498;2023-08-21T10:26:47;101800;;;25.899;21.98094
46174;BME280;31897;52.420;13.498;2023-08-21T10:29:56;101800;;;25.80077;21.87565
46174;BME280;31897;52.420;13.498;2023-08-21T10:32:57;101800;;;25.59496;22.12372
46174;BME280;31897;52.420;13.498;2023-08-21T10:35:58;101800;;;25.63826;21.9934
46174;BME280;31897;52.420;13.498;2023-08-21T10:38:59;101800;;;25.72291;21.94659
46174;BME280;31897;52.420;13.498;2023-08-21T10:42:00;101800;;;25.82501;22.20445
46174;BME280;31897;52.420;13.498;2023-08-21T10:45:02;101800;;;25.90223;22.30468
46174;BME280;31897;52.420;13.498;2023-08-21T10:48:10;101800;;;25.97395;22.0996
46174;BME280;31897;52.420;13.498;2023-08-21T10:51:10;101800;;;25.96652;22.0266
46174;BME280;31897;52.420;13.498;2023-08-21T10:54:11;101800;;;25.85085;22.09935
46174;BME280;31897;52.420;13.498;2023-08-21T10:57:13;101800;;;25.97105;21.96526
46174;BME280;31897;52.420;13.498;2023-08-21T11:00:14;101800;;;26.0376;22.16993
46174;BME280;31897;52.420;13.498;2023-08-21T11:03:15;101800;;;25.91192;22.16367
46174;BME280;31897;52.420;13.498;2023-08-21T11:06:18;101800;;;26.09802;21.93472
46174;BME280;31897;52.420;13.498;2023-08-21T11:09:19;101800;;;26.37233;21.85424
46174;BME280;31897;52.420;13.498;2023-08-21T11:12:20;101800;;;26.63113;21.47442
46174;BME280;31897;52.420;13.498;2023-08-21T11:15:21;101800;;;26.50448;21.37659
46174;BME280;31897;52.420;13.498;2023-08-21T11:18:28;101800;;;26.65472;21.35693
46174;BME280;31897;52.420;13.498;2023-08-21T11:21:29;101800;;;26.47798;20.63113
46174;BME280;31897;52.420;13.498;2023-08-21T11:24:30;101800;;;25.9242;20.89163
46174;BME280;31897;52.420;13.498;2023-08-21T11:27:31;101800;;;25.82081;21.30634
46174;BME280;31897;52.420;13.498;2023-08-21T11:30:32;101800;;;25.89383;21.48
46174;BME280;31897;52.420;13.498;2023-08-21T11:33:33;101800;;;25.82888;21.31205
46174;BME280;31897;52.420;13.498;2023-08-21T11:36:34;101800;;;25.81951;21.08637
46174;BME280;31897;52.420;13.498;2023-08-21T11:39:42;101800;;;25.9103;20.87399
46174;BME280;31897;52.420;13.498;2023-08-21T11:42:43;101800;;;26.49672;20.72201
46174;BME280;31897;52.420;13.498;2023-08-21T11:45:45;101800;;;26.38009;20.25664
46174;BME280;31897;52.420;13.498;2023-08-21T11:48:46;101800;;;26.4153;20.29766
46174;BME280;31897;52.420;13.498;2023-08-21T11:51:47;101800;;;26.44147;20.17999
46174;BME280;31897;52.420;13.498;2023-08-21T11:54:48;101800;;;26.54971;20.14375
46174;BME280;31897;52.420;13.498;2023-08-21T11:57:49;101800;;;26.44244;20.31463
46174;BME280;31897;52.420;13.498;2023-08-21T12:00:51;101800;;;26.35036;20.55807
46174;BME280;31897;52.420;13.498;2023-08-21T12:03:51;101800;;;26.40012;20.88604
46174;BME280;31897;52.420;13.498;2023-08-21T12:06:52;101800;;;26.25472;21.18702
46174;BME280;31897;52.420;13.498;2023-08-21T12:09:53;101800;;;26.18267;21.34964
46174;BME280;31897;52.420;13.498;2023-08-21T12:12:54;101800;;;26.0641;21.48389
46174;BME280;31897;52.420;13.498;2023-08-21T12:15:55;101800;;;26.07444;21.72185
46174;BME280;31897;52.420;13.498;2023-08-21T12:18:56;101800;;;26.16878;21.76009
46174;BME280;31897;52.420;13.498;2023-08-21T12:21:56;101800;;;26.32677;21.47101
46174;BME280;31897;52.420;13.498;2023-08-21T12:24:57;101800;;;26.44115;21.30016
46174;BME280;31897;52.420;13.498;2023-08-21T12:27:58;101800;;;26.45828;21.13406
46174;BME280;31897;52.420;13.498;2023-08-21T12:30:59;101800;;;26.64955;20.81222
46174;BME280;31897;52.420;13.498;2023-08-21T12:34:00;101800;;;26.66603;20.79914
46174;BME280;31897;52.420;13.498;2023-08-21T12:37:00;101800;;;26.68477;20.60221
46174;BME280;31897;52.420;13.498;2023-08-21T12:40:01;101800;;;26.75391;20.67831
46174;BME280;31897;52.420;13.498;2023-08-21T12:43:02;101800;;;26.88961;20.35276
46174;BME280;31897;52.420;13.498;2023-08-21T12:46:03;101800;;;27.10899;19.98582
46174;BME280;31897;52.420;13.498;2023-08-21T12:49:03;101800;;;27.51836;19.55921
46174;BME280;31897;52.420;13.498;2023-08-21T12:52:04;101800;;;28.05859;19.17992
46174;BME280;31897;52.420;13.498;2023-08-21T12:55:06;101800;;;28.65569;18.80263
46174;BME280;31897;52.420;13.498;2023-08-21T12:58:06;101800;;;28.97427;18.58166
46174;BME280;31897;52.420;13.498;2023-08-21T13:01:07;101800;;;29.08445;18.47691
46174;BME280;31897;52.420;13.498;2023-08-21T13:04:08;101800;;;29.30513;18.37815
46174;BME280;31897;52.420;13.498;2023-08-21T13:07:09;101800;;;29.67703;18.25833
46174;BME280;31897;52.420;13.498;2023-08-21T13:10:10;101800;;;30.00304;18.00512
46174;BME280;31897;52.420;13.498;2023-08-21T13:13:10;101800;;;30.18722;17.93889
46174;BME280;31897;52.420;13.498;2023-08-21T13:16:11;101800;;;30.27898;17.8718
46174;BME280;31897;52.420;13.498;2023-08-21T13:19:12;101800;;;30.47737;17.66251
46174;BME280;31897;52.420;13.498;2023-08-21T13:22:15;101800;;;30.67996;17.18069
46174;BME280;31897;52.420;13.498;2023-08-21T13:25:18;101800;;;30.26185;16.71752
46174;BME280;31897;52.420;13.498;2023-08-21T13:28:24;101800;;;29.21757;17.40936
46174;BME280;31897;52.420;13.498;2023-08-21T13:31:25;101800;;;28.60948;17.88208
46174;BME280;31897;52.420;13.498;2023-08-21T13:34:25;101800;;;28.36877;18.08048
46174;BME280;31897;52.420;13.498;2023-08-21T13:37:26;101800;;;28.17555;18.25137
46174;BME280;31897;52.420;13.498;2023-08-21T13:40:27;101800;;;28.572;18.21656
46174;BME280;31897;52.420;13.498;2023-08-21T13:43:28;101800;;;28.99527;18.0939
46174;BME280;31897;52.420;13.498;2023-08-21T13:46:28;101800;;;29.35392;17.98087
46174;BME280;31897;52.420;13.498;2023-08-21T13:49:29;101800;;;29.38397;17.79418
46174;BME280;31897;52.420;13.498;2023-08-21T13:52:30;101800;;;29.76297;17.61172
46174;BME280;31897;52.420;13.498;2023-08-21T13:55:31;101800;;;30.0696;16.93916
46174;BME280;31897;52.420;13.498;2023-08-21T13:58:32;101800;;;30.04149;16.37264
46174;BME280;31897;52.420;13.498;2023-08-21T14:01:33;101800;;;29.75877;16.55044
46174;BME280;31897;52.420;13.498;2023-08-21T14:04:33;101800;;;29.83535;16.46552
46174;BME280;31897;52.420;13.498;2023-08-21T14:07:34;101800;;;29.99496;16.10373
46174;BME280;31897;52.420;13.498;2023-08-21T14:10:35;101800;;;29.69673;16.09747
46174;BME280;31897;52.420;13.498;2023-08-21T14:13:36;101800;;;29.84763;16.0264
46174;BME280;31897;52.420;13.498;2023-08-21T14:16:37;101800;;;29.88995;15.71499
46174;BME280;31897;52.420;13.498;2023-08-21T14:19:37;101800;;;29.64213;15.87248
46174;BME280;31897;52.420;13.498;2023-08-21T14:22:38;101800;;;29.86475;16.06856
46174;BME280;31897;52.420;13.498;2023-08-21T14:25:40;101800;;;29.98915;15.92497
46174;BME280;31897;52.420;13.498;2023-08-21T14:28:41;101800;;;29.9843;15.87586
46174;BME280;31897;52.420;13.498;2023-08-21T14:31:42;101800;;;30.10805;15.59009
46174;BME280;31897;52.420;13.498;2023-08-21T14:34:43;101800;;;30.05054;15.4269
46174;BME280;31897;52.420;13.498;2023-08-21T14:37:44;101800;;;30.0709;15.31439
46174;BME280;31897;52.420;13.498;2023-08-21T14:40:44;101800;;;29.89545;15.31937
46174;BME280;31897;52.420;13.498;2023-08-21T14:43:45;101800;;;29.86928;15.21605
46174;BME280;31897;52.420;13.498;2023-08-21T14:46:46;101800;;;29.61305;15.13976
46174;BME280;31897;52.420;13.498;2023-08-21T14:49:47;101800;;;29.2712;14.86547
46174;BME280;31897;52.420;13.498;2023-08-21T14:52:47;101800;;;29.08574;15.02539
46174;BME280;31897;52.420;13.498;2023-08-21T14:55:48;101800;;;29.39818;15.11028
46174;BME280;31897;52.420;13.498;2023-08-21T14:58:49;101800;;;29.4641;14.89624
46174;BME280;31897;52.420;13.498;2023-08-21T15:01:50;101800;;;29.30642;15.16549